createdAt,value
2022-08-03T20:21:47.844Z,74.58
2022-08-03T20:23:22.726Z,75.36
2022-08-03T20:24:56.710Z,75.61
2022-08-03T20:26:31.273Z,75.62
2022-08-03T20:28:18.318Z,75.42
2022-08-03T20:30:06.661Z,75.05
2022-08-03T20:31:41.131Z,74.51
2022-08-03T20:33:18.834Z,74.91
2022-08-03T20:34:53.393Z,74.67
2022-08-03T20:36:29.570Z,74.65
2022-08-03T20:38:03.662Z,74.71
2022-08-03T20:39:43.045Z,74.50
2022-08-03T20:41:22.974Z,75.65
2022-08-03T20:42:56.256Z,75.84
2022-08-03T20:44:33.069Z,75.73
2022-08-03T20:46:32.133Z,75.97
2022-08-03T20:48:04.055Z,75.79
2022-08-03T20:49:45.763Z,75.30
2022-08-03T20:51:50.242Z,75.13
2022-08-03T20:54:00.448Z,75.50
2022-08-03T20:55:12.899Z,76.10
2022-08-03T20:56:49.559Z,76.78
2022-08-03T20:58:29.619Z,77.08
2022-08-03T21:00:09.876Z,77.23
2022-08-03T21:01:45.213Z,77.13
2022-08-03T21:03:19.110Z,76.81
2022-08-03T21:04:52.454Z,76.89
2022-08-03T21:06:29.604Z,76.42
2022-08-03T21:08:07.603Z,76.04
2022-08-03T21:09:49.389Z,74.82
2022-08-03T21:11:25.648Z,74.17
2022-08-03T21:15:07.573Z,71.82
2022-08-03T21:16:44.163Z,71.24
2022-08-03T21:18:18.183Z,70.51
2022-08-03T21:19:52.724Z,70.69
2022-08-03T21:21:30.694Z,70.84
2022-08-03T21:23:06.621Z,71.07
2022-08-03T21:24:41.147Z,71.46
2022-08-03T21:26:14.660Z,72.07
2022-08-03T21:27:48.480Z,72.57
2022-08-03T21:29:22.156Z,73.46
2022-08-03T21:30:55.485Z,74.23
2022-08-03T21:32:32.775Z,74.57
2022-08-03T21:34:06.904Z,75.96
2022-08-03T21:35:46.355Z,76.47
2022-08-03T21:37:19.864Z,77.66
2022-08-03T21:38:58.080Z,78.09
2022-08-03T21:40:34.941Z,78.48
2022-08-03T21:42:09.193Z,79.05
2022-08-03T21:43:42.533Z,80.02
2022-08-03T21:45:17.561Z,81.45
2022-08-03T21:46:52.879Z,81.44
2022-08-03T21:48:26.823Z,82.29
2022-08-03T21:50:06.227Z,82.46
2022-08-03T21:51:42.868Z,82.95
2022-08-03T21:53:16.716Z,83.45
2022-08-03T21:54:54.089Z,83.83
2022-08-03T21:56:30.488Z,84.19
2022-08-03T21:58:08.348Z,83.70
2022-08-03T21:59:45.264Z,84.15
2022-08-03T22:01:24.415Z,83.75
2022-08-03T22:02:59.696Z,83.46
2022-08-03T22:04:55.494Z,83.54
2022-08-03T22:06:34.518Z,82.66
2022-08-03T22:08:12.766Z,82.40
2022-08-03T22:09:51.156Z,82.35
2022-08-03T22:11:25.284Z,82.31
2022-08-03T22:12:58.785Z,82.51
2022-08-03T22:14:35.215Z,82.09
2022-08-03T22:16:09.790Z,82.26
2022-08-03T22:17:55.838Z,81.77
2022-08-03T22:19:30.993Z,81.78
2022-08-03T22:21:04.383Z,81.78
2022-08-03T22:22:38.486Z,81.70
2022-08-03T22:24:12.093Z,81.56
2022-08-03T22:25:46.910Z,81.36
2022-08-03T22:27:32.769Z,81.44
2022-08-03T22:29:10.633Z,81.95
2022-08-03T22:30:44.419Z,81.39
2022-08-03T22:32:17.906Z,81.50
2022-08-03T22:33:52.994Z,81.36
2022-08-03T22:35:27.995Z,81.43
2022-08-03T22:37:05.190Z,81.73
2022-08-03T22:38:39.570Z,82.03
2022-08-03T22:40:14.323Z,81.98
2022-08-03T22:41:48.162Z,82.12
2022-08-03T22:43:24.713Z,81.92
2022-08-03T22:45:02.177Z,81.99
2022-08-03T22:46:37.670Z,82.06
2022-08-03T22:48:11.717Z,81.84
2022-08-03T22:49:45.045Z,81.73
2022-08-03T22:51:20.481Z,81.38
2022-08-03T22:52:54.066Z,81.46
2022-08-03T22:54:27.290Z,81.75
2022-08-03T22:56:04.840Z,81.84
2022-08-03T22:57:41.435Z,82.02
2022-08-03T22:59:40.858Z,81.81
2022-08-03T23:01:09.660Z,81.66
2022-08-03T23:02:44.655Z,81.70
2022-08-03T23:04:19.128Z,81.68
2022-08-03T23:06:01.275Z,81.53
2022-08-03T23:07:38.879Z,81.52
2022-08-03T23:09:14.239Z,81.46
2022-08-03T23:10:48.246Z,81.00
2022-08-03T23:12:22.060Z,81.13
2022-08-03T23:13:57.292Z,80.68
2022-08-03T23:15:31.440Z,80.52
2022-08-03T23:17:07.435Z,80.37
2022-08-03T23:18:44.430Z,80.51
2022-08-03T23:20:18.547Z,80.37
2022-08-03T23:21:53.125Z,80.55
2022-08-03T23:23:43.871Z,81.33
2022-08-03T23:25:18.602Z,81.92
2022-08-03T23:26:54.667Z,81.98
2022-08-03T23:28:29.243Z,82.20
2022-08-03T23:30:03.060Z,82.27
2022-08-03T23:31:36.921Z,82.26
2022-08-03T23:33:17.920Z,82.64
2022-08-03T23:35:09.863Z,82.76
2022-08-03T23:36:48.563Z,83.05
2022-08-03T23:38:23.949Z,83.25
2022-08-03T23:39:57.911Z,82.91
2022-08-03T23:41:32.660Z,83.15
2022-08-03T23:43:06.287Z,83.56
2022-08-03T23:44:41.764Z,83.70
2022-08-03T23:46:18.674Z,83.39
2022-08-03T23:47:51.990Z,83.39
2022-08-03T23:49:25.290Z,83.40
2022-08-03T23:51:06.480Z,83.29
2022-08-03T23:52:45.706Z,83.33
2022-08-03T23:54:22.008Z,83.65
2022-08-03T23:56:19.674Z,83.53
2022-08-03T23:58:04.611Z,83.46
